Time;durP1;ratioP1;P1;durP2;ratioP2;P2;SDS_P1;SDS_P2;PMS_P1;PMS_P2;Temp;Humidity;BMP_temperature;BMP_pressure;BME280_temperature;BME280_humidity;BME280_pressure;Samples;Min_cycle;Max_cycle;Signal;HPM_P1;HPM_P2
2022/11/02 00:01:12;;;;;;;3.00;0.85;;;17.10;70.00;;;;;;4940729;28;20023;-81
2022/11/02 00:03:38;;;;;;;2.13;0.63;;;17.00;70.00;;;;;;4960727;28;20318;-82
2022/11/02 00:06:04;;;;;;;2.78;0.80;;;17.00;69.70;;;;;;4971508;28;20035;-82
2022/11/02 00:08:29;;;;;;;2.50;0.70;;;16.90;69.90;;;;;;4945067;28;20598;-83
2022/11/02 00:10:55;;;;;;;2.42;0.90;;;16.90;70.00;;;;;;4969682;28;20030;-83
2022/11/02 00:13:20;;;;;;;2.60;0.67;;;16.80;70.00;;;;;;4952744;28;20041;-82
2022/11/02 00:15:46;;;;;;;2.67;0.80;;;16.80;69.90;;;;;;4961419;28;20046;-83
2022/11/02 00:18:14;;;;;;;2.53;0.70;;;16.70;69.90;;;;;;4967436;28;20434;-81
2022/11/02 00:20:42;;;;;;;3.17;0.70;;;16.70;69.90;;;;;;4961131;28;20543;-81
2022/11/02 00:23:11;;;;;;;1.83;0.68;;;16.60;69.60;;;;;;4959127;28;20061;-81
2022/11/02 00:25:55;;;;;;;2.83;0.70;;;16.60;69.70;;;;;;4962335;28;20499;-81
2022/11/02 00:28:21;;;;;;;1.75;0.60;;;16.50;70.10;;;;;;4968510;28;20383;-82
2022/11/02 00:30:48;;;;;;;2.27;0.70;;;16.50;69.60;;;;;;4957808;28;20035;-82
2022/11/02 00:33:14;;;;;;;2.58;0.60;;;16.40;69.70;;;;;;4930791;28;20029;-84
2022/11/02 00:35:40;;;;;;;4.13;0.80;;;16.40;69.60;;;;;;4974256;28;20034;-83
2022/11/02 00:38:06;;;;;;;3.47;0.90;;;16.30;70.50;;;;;;4967058;28;20411;-82
2022/11/02 00:40:32;;;;;;;2.70;0.80;;;16.30;69.90;;;;;;4948797;28;20441;-83
2022/11/02 00:42:57;;;;;;;1.73;0.50;;;16.30;70.00;;;;;;4968068;28;20023;-81
2022/11/02 00:45:23;;;;;;;2.87;0.80;;;16.30;69.80;;;;;;4970510;28;20026;-81
2022/11/02 00:47:49;;;;;;;3.30;0.80;;;16.20;69.80;;;;;;4965490;28;20112;-82
2022/11/02 00:50:16;;;;;;;1.90;0.60;;;16.20;70.10;;;;;;4967001;28;20025;-82
2022/11/02 00:52:41;;;;;;;2.37;0.70;;;16.20;70.00;;;;;;4970405;28;20571;-82
2022/11/02 00:55:09;;;;;;;2.60;0.60;;;16.20;70.30;;;;;;4974098;28;20081;-81
2022/11/02 00:57:37;;;;;;;2.80;0.70;;;16.10;70.40;;;;;;4950849;28;20030;-82
2022/11/02 01:00:04;;;;;;;2.63;0.70;;;16.10;70.70;;;;;;4973740;28;20098;-83
2022/11/02 01:02:31;;;;;;;3.55;0.70;;;16.10;70.70;;;;;;4964387;28;20034;-82
2022/11/02 01:04:56;;;;;;;2.15;0.77;;;16.10;70.80;;;;;;4977167;28;20410;-81
2022/11/02 01:07:22;;;;;;;2.40;0.60;;;16.00;70.60;;;;;;4955017;28;20027;-82
2022/11/02 01:09:48;;;;;;;3.47;0.88;;;16.10;70.60;;;;;;4974487;28;20030;-82
2022/11/02 01:12:13;;;;;;;3.07;0.70;;;16.00;70.90;;;;;;4938373;28;20034;-82
2022/11/02 01:14:39;;;;;;;2.67;1.00;;;16.00;70.90;;;;;;4957842;28;20248;-81
2022/11/02 01:17:05;;;;;;;3.30;0.70;;;16.00;71.00;;;;;;4971191;28;20031;-81
2022/11/02 01:19:30;;;;;;;2.05;0.60;;;15.90;71.00;;;;;;4943625;28;20722;-83
2022/11/02 01:21:56;;;;;;;4.03;0.80;;;15.90;70.90;;;;;;4958698;28;20392;-82
2022/11/02 01:24:22;;;;;;;2.05;0.60;;;15.90;70.90;;;;;;4956572;28;20048;-81
2022/11/02 01:26:51;;;;;;;1.73;0.70;;;15.90;71.30;;;;;;4973696;28;20578;-83
2022/11/02 01:29:17;;;;;;;3.13;0.70;;;15.90;71.30;;;;;;4946338;28;20042;-83
2022/11/02 01:31:43;;;;;;;1.92;0.60;;;15.90;71.20;;;;;;4967607;28;20023;-84
2022/11/02 01:34:10;;;;;;;3.40;0.70;;;15.90;71.30;;;;;;4968702;28;20026;-81
2022/11/02 01:36:36;;;;;;;2.42;0.60;;;15.90;71.20;;;;;;4949487;28;20547;-82
2022/11/02 01:39:02;;;;;;;2.63;0.90;;;15.90;71.20;;;;;;4987054;28;20058;-82
2022/11/02 01:41:28;;;;;;;2.57;0.90;;;15.90;71.30;;;;;;4965967;28;20038;-83
2022/11/02 01:43:57;;;;;;;2.47;0.80;;;15.90;71.30;;;;;;4948053;28;20153;-83
2022/11/02 01:46:38;;;;;;;4.13;1.20;;;15.90;71.30;;;;;;4963447;28;20340;-83
2022/11/02 01:49:09;;;;;;;3.97;0.87;;;15.90;71.70;;;;;;4968379;28;20031;-82
2022/11/02 01:52:03;;;;;;;3.50;0.80;;;15.90;71.30;;;;;;4945465;28;20063;-82
2022/11/02 01:54:36;;;;;;;2.72;0.70;;;15.90;71.30;;;;;;4958727;28;20499;-83
2022/11/02 01:57:05;;;;;;;4.35;0.80;;;15.90;71.10;;;;;;4962633;28;20033;-82
2022/11/02 01:59:37;;;;;;;3.35;0.80;;;15.90;71.00;;;;;;4942860;28;20049;-81
2022/11/02 02:02:14;;;;;;;3.33;0.80;;;15.90;70.90;;;;;;4956678;28;20469;-83
2022/11/02 02:04:41;;;;;;;4.15;0.88;;;15.90;71.00;;;;;;4972473;28;20555;-84
2022/11/02 02:07:07;;;;;;;3.50;0.90;;;15.90;70.80;;;;;;4929690;28;20022;-83
2022/11/02 02:09:34;;;;;;;2.92;0.75;;;15.90;70.70;;;;;;4964865;28;20026;-82
2022/11/02 02:12:00;;;;;;;2.03;0.77;;;15.90;71.40;;;;;;4962028;28;20190;-82
2022/11/02 02:14:25;;;;;;;3.17;0.83;;;15.90;71.40;;;;;;4947098;28;20544;-84
2022/11/02 02:17:18;;;;;;;3.22;0.80;;;15.90;70.50;;;;;;4966893;28;20673;-83
2022/11/02 02:20:06;;;;;;;3.40;0.88;;;15.80;70.70;;;;;;4969997;28;20221;-84
2022/11/02 02:22:51;;;;;;;4.38;0.95;;;15.90;70.90;;;;;;4960152;28;20690;-83
2022/11/02 02:25:48;;;;;;;2.43;0.90;;;15.80;70.70;;;;;;4964338;28;20286;-82
2022/11/02 02:28:27;;;;;;;2.75;0.80;;;15.90;71.00;;;;;;4918301;28;20034;-84
2022/11/02 02:30:57;;;;;;;2.38;0.70;;;15.80;71.00;;;;;;4936523;28;20030;-83
2022/11/02 02:33:34;;;;;;;3.65;0.80;;;15.90;70.80;;;;;;4954350;28;20490;-83
2022/11/02 02:36:09;;;;;;;3.50;0.93;;;15.80;70.80;;;;;;4958096;28;20030;-82
2022/11/02 02:38:43;;;;;;;3.10;0.80;;;15.80;70.90;;;;;;4943492;28;21053;-82
2022/11/02 02:41:18;;;;;;;1.90;0.63;;;15.90;71.30;;;;;;4955928;28;20033;-81
2022/11/02 02:43:51;;;;;;;3.22;0.90;;;15.90;71.30;;;;;;4964488;28;20707;-83
2022/11/02 02:46:28;;;;;;;3.92;0.93;;;15.80;71.00;;;;;;4929275;28;20108;-82
2022/11/02 02:48:56;;;;;;;3.58;1.00;;;15.80;71.50;;;;;;4969537;28;20034;-84
2022/11/02 02:51:30;;;;;;;3.60;0.80;;;15.80;71.20;;;;;;4944887;28;20015;-82
2022/11/02 02:54:05;;;;;;;4.65;0.70;;;15.70;71.30;;;;;;4958870;28;20104;-83
2022/11/02 02:56:40;;;;;;;2.85;0.70;;;15.70;71.60;;;;;;4966892;28;20376;-81
2022/11/02 02:59:11;;;;;;;2.55;0.80;;;15.70;71.40;;;;;;4959933;28;20030;-82
2022/11/02 03:01:41;;;;;;;3.35;0.90;;;15.70;71.30;;;;;;4940476;28;20339;-83
2022/11/02 03:04:12;;;;;;;4.57;0.87;;;15.60;71.50;;;;;;4967294;28;20692;-84
2022/11/02 03:06:40;;;;;;;4.07;1.00;;;15.60;71.50;;;;;;4947310;28;20097;-82
2022/11/02 03:09:30;;;;;;;3.13;0.80;;;15.60;71.80;;;;;;4949765;28;20061;-83
2022/11/02 03:12:14;;;;;;;3.38;0.82;;;15.60;72.00;;;;;;4967267;28;20015;-82
2022/11/02 03:15:16;;;;;;;4.03;0.80;;;15.60;71.90;;;;;;4951740;28;20057;-82
2022/11/02 03:17:46;;;;;;;4.30;0.90;;;15.60;72.70;;;;;;4950554;28;20031;-82
2022/11/02 03:20:17;;;;;;;4.28;1.40;;;15.60;71.80;;;;;;4972004;28;20031;-83
2022/11/02 03:22:54;;;;;;;3.67;0.70;;;15.60;71.80;;;;;;4950945;28;20161;-82
2022/11/02 03:25:33;;;;;;;3.25;0.73;;;15.60;72.10;;;;;;4960379;28;20595;-81
2022/11/02 03:28:05;;;;;;;3.88;0.90;;;15.60;72.40;;;;;;4972636;28;20073;-82
2022/11/02 03:30:36;;;;;;;2.30;0.80;;;15.60;71.80;;;;;;4952950;28;20113;-81
2022/11/02 03:33:13;;;;;;;4.03;0.70;;;15.60;71.80;;;;;;4987153;28;20311;-82
2022/11/02 03:35:57;;;;;;;4.85;1.08;;;15.60;72.10;;;;;;4996782;28;20048;-82
2022/11/02 03:38:50;;;;;;;3.65;0.70;;;15.50;71.70;;;;;;4956080;28;20394;-82
2022/11/02 03:41:19;;;;;;;2.97;0.57;;;15.50;71.70;;;;;;4984339;28;20038;-83
2022/11/02 03:43:47;;;;;;;4.17;1.00;;;15.50;71.70;;;;;;4962046;28;20237;-82
2022/11/02 03:46:15;;;;;;;6.13;1.08;;;15.40;71.90;;;;;;4973693;28;20030;-82
2022/11/02 03:48:46;;;;;;;4.00;0.80;;;15.40;72.10;;;;;;4939943;28;20022;-82
2022/11/02 03:51:16;;;;;;;3.92;1.00;;;15.40;72.40;;;;;;4970998;28;20076;-83
2022/11/02 03:54:18;;;;;;;4.18;0.90;;;15.40;72.10;;;;;;4940907;28;20505;-82
2022/11/02 03:56:48;;;;;;;3.77;1.03;;;15.40;72.70;;;;;;4964296;28;20311;-82
2022/11/02 03:59:14;;;;;;;4.45;0.98;;;15.40;72.20;;;;;;4968421;28;20396;-83
2022/11/02 04:01:43;;;;;;;5.75;1.00;;;15.40;72.00;;;;;;4956839;28;20244;-85
2022/11/02 04:04:09;;;;;;;3.60;0.70;;;15.40;72.10;;;;;;4944657;28;20175;-82
2022/11/02 04:06:35;;;;;;;4.68;0.80;;;15.30;72.00;;;;;;4971873;28;20412;-83
2022/11/02 04:09:01;;;;;;;4.20;0.70;;;15.30;72.10;;;;;;4960151;28;20098;-84
2022/11/02 04:19:54;;;;;;;3.45;0.90;;;15.20;71.90;;;;;;4929613;28;20042;-82
2022/11/02 04:25:19;;;;;;;2.97;0.87;;;15.10;71.90;;;;;;4959829;28;20320;-83
2022/11/02 04:27:47;;;;;;;4.85;0.80;;;15.10;72.20;;;;;;4962813;28;20238;-82
2022/11/02 04:30:15;;;;;;;4.57;0.80;;;15.10;72.00;;;;;;4941581;28;20175;-82
2022/11/02 04:35:28;;;;;;;2.50;0.70;;;15.00;72.20;;;;;;4978793;28;20219;-84
2022/11/02 04:40:38;;;;;;;4.97;0.82;;;14.90;72.40;;;;;;4985712;28;20038;-82
2022/11/02 04:43:03;;;;;;;4.28;0.70;;;14.90;72.50;;;;;;4961018;28;20042;-83
2022/11/02 04:45:29;;;;;;;3.90;0.80;;;14.90;72.40;;;;;;4959313;28;20027;-82
2022/11/02 04:48:07;;;;;;;3.20;0.70;;;14.90;72.70;;;;;;4976113;28;20160;-82
2022/11/02 04:50:34;;;;;;;5.05;0.90;;;14.80;72.70;;;;;;4927940;28;20023;-82
2022/11/02 04:53:02;;;;;;;2.83;0.77;;;14.80;72.50;;;;;;4953476;28;20330;-83
2022/11/02 04:55:28;;;;;;;5.07;0.77;;;14.80;73.40;;;;;;4943419;28;20034;-81
2022/11/02 04:57:54;;;;;;;3.50;0.88;;;14.70;72.90;;;;;;4960913;28;20299;-82
2022/11/02 05:00:20;;;;;;;2.67;0.80;;;14.70;72.70;;;;;;4958288;28;20125;-82
2022/11/02 05:02:47;;;;;;;3.38;0.80;;;14.70;72.80;;;;;;4968477;28;20026;-82
2022/11/02 05:05:14;;;;;;;4.15;1.00;;;14.70;73.80;;;;;;4946197;28;20113;-83
2022/11/02 05:07:40;;;;;;;4.30;0.90;;;14.70;73.20;;;;;;4955029;28;20049;-82
2022/11/02 05:10:06;;;;;;;4.27;0.90;;;14.60;72.90;;;;;;4963376;28;20019;-82
2022/11/02 05:12:32;;;;;;;4.60;0.90;;;14.60;73.00;;;;;;4967706;28;20440;-82
2022/11/02 05:14:57;;;;;;;1.87;0.60;;;14.60;73.10;;;;;;4963336;28;20293;-83
2022/11/02 05:17:23;;;;;;;2.80;0.52;;;14.60;73.10;;;;;;4972774;28;20113;-83
2022/11/02 05:19:48;;;;;;;3.20;1.00;;;14.60;73.10;;;;;;4940623;28;20273;-82
2022/11/02 05:22:14;;;;;;;3.58;0.70;;;14.60;73.30;;;;;;4965501;28;20022;-82
2022/11/02 05:24:40;;;;;;;4.10;0.73;;;14.50;73.10;;;;;;4966559;28;20070;-83
2022/11/02 05:27:05;;;;;;;5.97;0.90;;;14.50;73.30;;;;;;4957996;28;20123;-83
2022/11/02 05:29:31;;;;;;;2.30;0.60;;;14.50;73.30;;;;;;4963292;28;20026;-83
2022/11/02 05:31:57;;;;;;;3.37;0.93;;;14.50;73.50;;;;;;4965964;28;20327;-82
2022/11/02 05:34:22;;;;;;;6.45;0.88;;;14.40;73.30;;;;;;4973416;28;20034;-81
2022/11/02 05:36:48;;;;;;;2.53;0.90;;;14.40;73.50;;;;;;4930886;28;20031;-83
2022/11/02 05:39:14;;;;;;;3.13;0.73;;;14.40;73.50;;;;;;4960381;28;20034;-82
2022/11/02 05:41:40;;;;;;;2.45;0.75;;;14.40;73.50;;;;;;4956561;28;20506;-83
2022/11/02 05:44:05;;;;;;;2.70;0.77;;;14.30;73.50;;;;;;4964563;28;20113;-82
2022/11/02 05:46:32;;;;;;;3.13;0.70;;;14.30;73.50;;;;;;4972355;28;20490;-83
2022/11/02 05:48:58;;;;;;;1.67;0.70;;;14.30;73.80;;;;;;4955056;28;20015;-80
2022/11/02 05:51:24;;;;;;;3.63;0.65;;;14.30;74.00;;;;;;4950864;28;20482;-83
2022/11/02 05:53:49;;;;;;;2.80;0.60;;;14.20;73.60;;;;;;4966964;28;20015;-83
2022/11/02 05:56:15;;;;;;;1.90;0.70;;;14.20;73.80;;;;;;4973263;28;20030;-82
2022/11/02 05:58:41;;;;;;;1.95;0.60;;;14.20;73.60;;;;;;4943937;28;20035;-81
2022/11/02 06:01:07;;;;;;;3.90;0.60;;;14.10;73.80;;;;;;4952664;28;20026;-82
2022/11/02 06:03:33;;;;;;;5.40;0.82;;;14.10;73.70;;;;;;4953515;28;20569;-82
2022/11/02 06:06:02;;;;;;;1.90;0.60;;;14.10;74.00;;;;;;4957289;28;20491;-83
2022/11/02 06:08:31;;;;;;;4.85;0.73;;;14.10;73.90;;;;;;4946939;28;20510;-82
2022/11/02 06:10:57;;;;;;;5.53;0.90;;;14.10;74.30;;;;;;4971178;28;20279;-82
2022/11/02 06:13:23;;;;;;;3.40;0.80;;;14.00;74.20;;;;;;4956062;28;20039;-83
2022/11/02 06:15:48;;;;;;;4.60;1.00;;;14.00;74.50;;;;;;4951140;28;20049;-82
2022/11/02 06:18:14;;;;;;;4.78;0.70;;;14.00;74.60;;;;;;4974166;28;20027;-83
2022/11/02 06:20:39;;;;;;;3.87;0.90;;;14.00;74.30;;;;;;4952490;28;20047;-82
2022/11/02 06:23:05;;;;;;;2.67;0.60;;;14.00;74.60;;;;;;4926379;28;20063;-81
2022/11/02 06:25:31;;;;;;;4.00;0.90;;;14.00;74.60;;;;;;4950047;28;20041;-82
2022/11/02 06:27:57;;;;;;;2.97;0.63;;;13.90;74.70;;;;;;4943022;28;20533;-83
2022/11/02 06:30:24;;;;;;;1.90;0.63;;;13.90;74.50;;;;;;4948779;28;20050;-83
2022/11/02 06:32:51;;;;;;;4.88;1.20;;;13.90;74.90;;;;;;4954690;28;20388;-81
2022/11/02 06:35:18;;;;;;;3.58;0.80;;;13.90;75.10;;;;;;4954433;28;20263;-83
2022/11/02 06:37:45;;;;;;;4.10;0.73;;;13.90;75.70;;;;;;4953156;28;20030;-83
2022/11/02 06:40:12;;;;;;;4.55;0.85;;;13.90;75.80;;;;;;4914154;28;20964;-82
2022/11/02 06:42:39;;;;;;;4.17;0.97;;;13.90;75.50;;;;;;4970229;28;20031;-82
2022/11/02 06:45:05;;;;;;;3.70;1.08;;;13.80;76.10;;;;;;4923662;28;20113;-82
2022/11/02 06:47:33;;;;;;;4.15;0.75;;;13.80;75.60;;;;;;4962131;28;20058;-82
2022/11/02 06:49:59;;;;;;;3.63;0.90;;;13.80;75.50;;;;;;4974110;28;20552;-81
2022/11/02 06:52:26;;;;;;;1.83;0.70;;;13.80;76.10;;;;;;4952113;28;20022;-80
2022/11/02 06:54:52;;;;;;;3.33;0.90;;;13.80;75.40;;;;;;4945960;28;20030;-81
2022/11/02 06:57:18;;;;;;;4.45;0.90;;;13.80;75.90;;;;;;4951383;28;20030;-81
2022/11/02 06:59:43;;;;;;;3.33;0.90;;;13.80;76.10;;;;;;4955577;28;20328;-82
2022/11/02 07:02:09;;;;;;;2.50;0.77;;;13.80;75.80;;;;;;4945595;28;20026;-82
2022/11/02 07:04:35;;;;;;;3.33;0.90;;;13.80;75.90;;;;;;4953351;28;20390;-83
2022/11/02 07:07:00;;;;;;;4.07;1.05;;;13.80;76.20;;;;;;4967328;28;20014;-82
2022/11/02 07:09:26;;;;;;;3.23;0.70;;;13.80;76.30;;;;;;4926860;28;20100;-83
2022/11/02 07:11:52;;;;;;;3.22;0.80;;;13.80;76.30;;;;;;4938353;28;20749;-82
2022/11/02 07:14:17;;;;;;;4.73;1.00;;;13.80;76.50;;;;;;4972368;28;20155;-83
2022/11/02 07:16:43;;;;;;;4.63;0.90;;;13.80;76.20;;;;;;4954849;28;20066;-81
2022/11/02 07:19:09;;;;;;;2.83;0.83;;;13.80;76.70;;;;;;4973302;28;20050;-82
2022/11/02 07:21:35;;;;;;;4.60;0.90;;;13.90;77.00;;;;;;4965485;28;20031;-82
2022/11/02 07:24:00;;;;;;;5.43;0.90;;;13.90;77.20;;;;;;4938041;28;20092;-83
2022/11/02 07:26:26;;;;;;;3.53;0.77;;;14.00;77.40;;;;;;4977455;28;20038;-82
2022/11/02 07:28:52;;;;;;;6.30;1.02;;;14.00;77.60;;;;;;4962830;28;20215;-82
2022/11/02 07:31:18;;;;;;;3.10;1.10;;;14.10;77.50;;;;;;4952486;28;20026;-82
2022/11/02 07:33:43;;;;;;;3.50;0.80;;;14.20;77.40;;;;;;4979153;28;20053;-80
2022/11/02 07:36:09;;;;;;;3.10;0.80;;;14.30;77.30;;;;;;4936695;28;20813;-81
2022/11/02 07:38:35;;;;;;;3.70;0.90;;;14.30;77.00;;;;;;4970799;28;20095;-81
2022/11/02 07:41:01;;;;;;;3.30;0.85;;;14.30;76.60;;;;;;4931909;28;20026;-83
2022/11/02 07:43:27;;;;;;;3.65;0.80;;;14.30;76.40;;;;;;4980961;28;20338;-82
2022/11/02 07:45:53;;;;;;;7.80;1.20;;;14.40;76.70;;;;;;4962461;28;20033;-83
2022/11/02 07:48:19;;;;;;;3.80;0.80;;;14.40;76.80;;;;;;4955253;28;20236;-82
2022/11/02 07:50:45;;;;;;;9.93;1.15;;;14.40;76.70;;;;;;4974941;28;20033;-81
2022/11/02 07:53:11;;;;;;;5.10;1.30;;;14.40;76.80;;;;;;4948220;28;20758;-82
2022/11/02 07:55:38;;;;;;;4.20;1.20;;;14.30;76.60;;;;;;4927310;28;20054;-82
2022/11/02 07:58:09;;;;;;;7.38;1.40;;;14.30;76.80;;;;;;4953071;28;20042;-81
2022/11/02 08:00:40;;;;;;;4.05;1.00;;;14.30;76.80;;;;;;4941993;28;20034;-83
2022/11/02 08:03:06;;;;;;;8.10;1.52;;;14.30;77.10;;;;;;4973854;28;20030;-81
2022/11/02 08:05:35;;;;;;;6.57;1.52;;;14.40;76.90;;;;;;4957558;28;20508;-82
2022/11/02 08:08:05;;;;;;;7.23;1.40;;;14.40;77.10;;;;;;4957382;28;20023;-82
2022/11/02 08:10:33;;;;;;;5.90;1.17;;;14.40;77.30;;;;;;4947359;28;20123;-82
2022/11/02 08:12:58;;;;;;;4.13;1.30;;;14.40;77.40;;;;;;4951869;28;20705;-83
2022/11/02 08:15:24;;;;;;;5.20;1.23;;;14.40;77.60;;;;;;4958680;28;20102;-80
2022/11/02 08:18:05;;;;;;;6.73;1.43;;;14.40;77.50;;;;;;4955642;28;20563;-81
2022/11/02 08:20:33;;;;;;;5.90;1.20;;;14.50;77.90;;;;;;4967299;28;20676;-82
2022/11/02 08:22:59;;;;;;;5.10;1.05;;;14.50;77.50;;;;;;4932288;28;20034;-82
2022/11/02 08:25:25;;;;;;;5.03;1.20;;;14.50;77.60;;;;;;4942664;28;20108;-83
2022/11/02 08:27:51;;;;;;;6.53;1.20;;;14.60;78.00;;;;;;4962100;28;20375;-81
2022/11/02 08:30:17;;;;;;;7.32;1.48;;;14.60;78.20;;;;;;4955463;28;20026;-84
2022/11/02 08:32:43;;;;;;;4.95;1.15;;;14.70;78.20;;;;;;4954435;28;20034;-82
2022/11/02 08:35:08;;;;;;;3.97;0.90;;;14.80;78.10;;;;;;4963886;28;20027;-82
2022/11/02 08:37:34;;;;;;;4.18;1.00;;;14.90;77.90;;;;;;4964312;28;20450;-82
2022/11/02 08:39:59;;;;;;;4.93;0.93;;;14.90;77.70;;;;;;4963426;28;20138;-82
2022/11/02 08:42:25;;;;;;;4.40;1.20;;;15.00;77.60;;;;;;4940471;28;20446;-85
2022/11/02 08:44:51;;;;;;;4.25;1.15;;;15.10;77.30;;;;;;4921523;28;20177;-81
2022/11/02 08:47:17;;;;;;;5.13;1.10;;;15.00;77.30;;;;;;4934088;28;21404;-82
2022/11/02 08:49:43;;;;;;;5.00;1.20;;;15.10;77.30;;;;;;4967971;28;20031;-83
2022/11/02 08:52:09;;;;;;;3.83;1.20;;;15.10;77.20;;;;;;4968756;28;20213;-82
2022/11/02 08:54:35;;;;;;;5.20;1.00;;;15.20;77.20;;;;;;4963691;28;20034;-82
2022/11/02 08:57:00;;;;;;;6.20;1.20;;;15.20;77.30;;;;;;4928587;28;20486;-83
2022/11/02 08:59:26;;;;;;;6.30;1.23;;;15.30;77.40;;;;;;4957823;28;20395;-81
2022/11/02 09:01:51;;;;;;;4.00;0.80;;;15.30;77.60;;;;;;4938472;28;20046;-82
2022/11/02 09:04:17;;;;;;;4.37;1.00;;;15.40;78.00;;;;;;4950005;28;20228;-81
2022/11/02 09:06:43;;;;;;;4.50;0.90;;;15.50;78.30;;;;;;4950444;28;20576;-83
2022/11/02 09:09:10;;;;;;;5.97;1.30;;;15.70;79.00;;;;;;4972697;28;20046;-83
2022/11/02 09:11:35;;;;;;;5.07;1.15;;;15.90;79.60;;;;;;4956789;28;20041;-82
2022/11/02 09:14:01;;;;;;;7.90;1.60;;;16.20;80.20;;;;;;4935338;28;20030;-80
2022/11/02 09:16:27;;;;;;;5.70;1.50;;;16.50;80.70;;;;;;4945087;28;20081;-81
2022/11/02 09:18:53;;;;;;;5.97;1.17;;;16.90;79.80;;;;;;4946147;28;20027;-82
2022/11/02 09:21:18;;;;;;;6.40;1.30;;;17.10;79.20;;;;;;4964824;28;20499;-80
2022/11/02 09:23:47;;;;;;;4.57;1.10;;;17.40;79.00;;;;;;4972147;28;20030;-83
2022/11/02 09:26:13;;;;;;;6.17;1.53;;;17.80;79.70;;;;;;4971685;28;20385;-82
2022/11/02 09:28:39;;;;;;;4.05;1.10;;;18.20;80.20;;;;;;4946608;28;20030;-82
2022/11/02 09:31:04;;;;;;;3.53;1.10;;;18.50;79.00;;;;;;4957585;28;20221;-83
2022/11/02 09:33:31;;;;;;;6.07;1.20;;;18.90;79.10;;;;;;4955198;28;20273;-82
2022/11/02 09:36:02;;;;;;;5.63;1.10;;;19.30;79.00;;;;;;4971110;28;20061;-82
2022/11/02 09:38:28;;;;;;;7.45;1.40;;;19.70;77.30;;;;;;4973572;28;20027;-82
2022/11/02 09:41:12;;;;;;;4.93;1.60;;;20.00;77.90;;;;;;4973257;28;20029;-81
2022/11/02 09:43:56;;;;;;;5.78;1.30;;;20.40;76.10;;;;;;4937554;28;20116;-82
2022/11/02 09:46:31;;;;;;;5.75;1.23;;;20.70;75.20;;;;;;4949443;28;20078;-83
2022/11/02 09:49:04;;;;;;;4.15;1.20;;;21.10;74.40;;;;;;4964054;28;20050;-83
2022/11/02 09:51:35;;;;;;;5.97;1.20;;;21.40;74.10;;;;;;4978760;28;20035;-82
2022/11/02 09:54:27;;;;;;;5.63;1.38;;;21.70;74.10;;;;;;4974997;28;20041;-82
2022/11/02 09:56:57;;;;;;;4.95;1.25;;;22.00;72.20;;;;;;4972735;28;20034;-81
2022/11/02 09:59:25;;;;;;;5.72;1.30;;;22.30;73.70;;;;;;4940819;28;20701;-82
2022/11/02 10:02:09;;;;;;;3.58;1.00;;;22.50;73.70;;;;;;4947257;28;21276;-82
2022/11/02 10:05:00;;;;;;;4.33;1.40;;;22.80;73.30;;;;;;4948826;28;20073;-82
2022/11/02 10:07:38;;;;;;;5.32;1.30;;;23.10;70.80;;;;;;4970004;28;20030;-82
2022/11/02 10:10:16;;;;;;;4.72;1.30;;;23.40;68.90;;;;;;4961514;28;20038;-82
2022/11/02 10:13:13;;;;;;;4.72;1.20;;;23.60;69.00;;;;;;4968822;28;20790;-82
2022/11/02 10:15:54;;;;;;;5.38;1.20;;;23.80;65.10;;;;;;4959749;28;20090;-81
2022/11/02 10:18:28;;;;;;;4.80;1.30;;;24.00;69.70;;;;;;4939170;28;20019;-83
2022/11/02 10:21:18;;;;;;;5.40;1.40;;;24.20;67.80;;;;;;4950076;28;20026;-82
2022/11/02 10:23:53;;;;;;;4.70;1.27;;;24.40;66.40;;;;;;4974364;28;20035;-82
2022/11/02 10:26:26;;;;;;;3.40;1.20;;;24.50;66.30;;;;;;4973755;28;20402;-82
2022/11/02 10:29:13;;;;;;;4.25;1.10;;;24.70;66.60;;;;;;4976823;28;20030;-82
2022/11/02 10:31:39;;;;;;;5.67;1.20;;;24.80;64.60;;;;;;4952847;28;20578;-83
2022/11/02 10:34:18;;;;;;;4.10;1.17;;;24.90;66.10;;;;;;4947585;28;20027;-82
2022/11/02 10:37:10;;;;;;;6.38;1.42;;;25.00;63.00;;;;;;4952536;28;20483;-81
2022/11/02 10:40:06;;;;;;;3.75;1.10;;;25.10;64.10;;;;;;4925301;28;20026;-82
2022/11/02 10:42:53;;;;;;;4.43;1.10;;;25.30;62.30;;;;;;4970343;28;20038;-83
2022/11/02 10:45:56;;;;;;;5.70;1.20;;;25.40;62.60;;;;;;4971188;28;20719;-83
2022/11/02 10:48:52;;;;;;;4.15;1.13;;;25.50;59.70;;;;;;4959111;28;20232;-82
2022/11/02 10:51:20;;;;;;;5.18;1.40;;;25.60;60.50;;;;;;4943433;28;20196;-82
2022/11/02 10:53:50;;;;;;;5.07;1.38;;;25.60;62.00;;;;;;4967297;28;20430;-82
2022/11/02 10:56:22;;;;;;;3.60;1.20;;;25.60;61.10;;;;;;4971133;28;20660;-83
2022/11/02 10:59:11;;;;;;;5.20;1.20;;;25.60;60.50;;;;;;4986177;28;20509;-82
2022/11/02 11:01:43;;;;;;;4.20;1.10;;;25.60;60.00;;;;;;5001664;28;20439;-82
2022/11/02 11:04:24;;;;;;;3.92;1.15;;;25.60;61.20;;;;;;4951136;28;20027;-83
2022/11/02 11:06:50;;;;;;;4.90;1.60;;;25.70;58.80;;;;;;4941068;28;20574;-84
2022/11/02 11:09:39;;;;;;;4.17;1.30;;;25.80;60.70;;;;;;4955490;28;20279;-82
2022/11/02 11:12:12;;;;;;;2.55;0.82;;;25.80;58.60;;;;;;4940978;28;20255;-83
2022/11/02 11:14:47;;;;;;;4.97;1.30;;;25.70;58.10;;;;;;4969675;28;20018;-83
2022/11/02 11:17:28;;;;;;;3.58;1.15;;;25.50;56.20;;;;;;4937834;28;20034;-82
2022/11/02 11:19:56;;;;;;;3.63;1.23;;;25.40;56.80;;;;;;4970761;28;20435;-83
2022/11/02 11:22:40;;;;;;;4.20;1.30;;;25.20;57.20;;;;;;4951415;28;20125;-82
2022/11/02 11:25:12;;;;;;;4.00;1.00;;;25.10;56.50;;;;;;4972721;28;20064;-83
2022/11/02 11:27:43;;;;;;;4.60;1.20;;;25.10;57.70;;;;;;4967209;28;20035;-82
2022/11/02 11:30:22;;;;;;;4.18;1.25;;;25.10;58.10;;;;;;4982736;28;20391;-84
2022/11/02 11:32:48;;;;;;;3.55;1.05;;;25.20;56.50;;;;;;4984063;28;20034;-82
2022/11/02 11:35:16;;;;;;;3.30;1.00;;;25.20;58.30;;;;;;4925116;28;20164;-81
2022/11/02 11:37:53;;;;;;;3.78;1.10;;;25.20;57.80;;;;;;4956139;28;20045;-82
2022/11/02 11:40:21;;;;;;;7.43;1.42;;;25.10;56.00;;;;;;4965494;28;20223;-82
2022/11/02 11:42:52;;;;;;;4.63;1.05;;;24.80;55.50;;;;;;4966790;28;20026;-82
2022/11/02 11:45:24;;;;;;;2.87;0.87;;;24.50;55.10;;;;;;4963055;28;20180;-83
2022/11/02 11:47:57;;;;;;;5.07;1.35;;;24.20;55.50;;;;;;4963141;28;20469;-82
2022/11/02 11:50:23;;;;;;;4.93;1.05;;;24.00;55.70;;;;;;4941673;28;20278;-82
2022/11/02 11:53:23;;;;;;;4.43;1.00;;;23.70;56.30;;;;;;4936503;28;20418;-81
2022/11/02 11:55:58;;;;;;;3.73;1.07;;;23.50;55.80;;;;;;4972939;28;20037;-82
2022/11/02 11:58:33;;;;;;;5.90;1.42;;;23.30;56.70;;;;;;4932960;28;20039;-81
2022/11/02 12:01:13;;;;;;;5.55;1.30;;;23.10;56.60;;;;;;4969690;28;20037;-84
2022/11/02 12:03:52;;;;;;;4.43;1.23;;;23.00;56.20;;;;;;4961252;28;20078;-82
2022/11/02 12:06:38;;;;;;;4.20;0.98;;;23.00;58.00;;;;;;4943242;28;20223;-82
2022/11/02 12:09:40;;;;;;;3.03;0.97;;;23.00;58.70;;;;;;4952508;28;20026;-81
2022/11/02 12:12:16;;;;;;;4.18;1.10;;;23.20;56.50;;;;;;4964399;28;20114;-82
2022/11/02 12:14:50;;;;;;;5.00;1.15;;;23.30;57.60;;;;;;4966533;28;20221;-83
2022/11/02 12:17:31;;;;;;;5.90;1.40;;;23.30;57.00;;;;;;4947108;28;20113;-82
2022/11/02 12:20:31;;;;;;;3.90;1.05;;;23.40;58.00;;;;;;4966173;28;20535;-82
2022/11/02 12:23:03;;;;;;;3.23;0.90;;;23.50;56.70;;;;;;4938494;28;20497;-83
2022/11/02 12:25:47;;;;;;;3.85;0.90;;;23.50;56.70;;;;;;4968671;28;20138;-82
2022/11/02 12:28:20;;;;;;;5.50;1.00;;;23.60;57.80;;;;;;4956125;28;20399;-82
2022/11/02 12:31:05;;;;;;;4.97;1.00;;;23.70;57.60;;;;;;4954553;28;20415;-83
2022/11/02 12:34:20;;;;;;;5.47;1.40;;;23.90;57.90;;;;;;4963140;28;20041;-84
2022/11/02 12:37:07;;;;;;;4.17;1.17;;;24.20;56.50;;;;;;4941573;28;20209;-81
2022/11/02 12:39:52;;;;;;;3.42;1.15;;;24.30;56.00;;;;;;4951943;28;20031;-83
2022/11/02 12:42:27;;;;;;;5.05;1.20;;;24.40;55.40;;;;;;4962744;28;20319;-83
2022/11/02 12:45:04;;;;;;;3.58;1.10;;;24.30;53.10;;;;;;4972240;28;20216;-83
2022/11/02 12:48:00;;;;;;;3.08;1.08;;;24.20;53.60;;;;;;4950608;28;20038;-82
2022/11/02 12:50:40;;;;;;;4.70;1.60;;;24.10;52.90;;;;;;4959661;28;20113;-83
2022/11/02 12:53:17;;;;;;;5.40;1.38;;;24.00;53.70;;;;;;4948335;28;20031;-83
2022/11/02 12:55:50;;;;;;;5.63;1.00;;;24.00;54.80;;;;;;4966520;28;20145;-82
2022/11/02 12:58:23;;;;;;;2.63;0.90;;;24.00;55.10;;;;;;4973677;28;20026;-82
2022/11/02 13:01:14;;;;;;;4.07;1.10;;;24.10;55.00;;;;;;4969262;28;20534;-83
2022/11/02 13:04:00;;;;;;;8.63;2.00;;;24.20;55.30;;;;;;4944425;28;20761;-83
2022/11/02 13:06:47;;;;;;;3.97;1.38;;;24.30;54.30;;;;;;4963313;28;20121;-82
2022/11/02 13:09:35;;;;;;;5.25;1.10;;;24.50;54.30;;;;;;4948630;28;20081;-82
2022/11/02 13:12:02;;;;;;;3.13;1.30;;;24.80;54.40;;;;;;4986493;28;20035;-81
2022/11/02 13:14:44;;;;;;;3.72;1.40;;;24.90;55.40;;;;;;4968648;28;20094;-82
2022/11/02 13:17:24;;;;;;;3.37;1.00;;;25.00;54.00;;;;;;4977857;28;20027;-84
2022/11/02 13:19:56;;;;;;;3.97;1.15;;;25.10;53.10;;;;;;4966908;28;20030;-84
2022/11/02 13:22:32;;;;;;;4.13;0.80;;;25.10;51.60;;;;;;4967013;28;20441;-82
2022/11/02 13:25:22;;;;;;;5.00;1.45;;;25.10;51.00;;;;;;4948100;28;20027;-82
2022/11/02 13:27:57;;;;;;;4.43;1.40;;;24.90;50.80;;;;;;4950237;28;20069;-82